sensor_id;sensor_type;location;lat;lon;timestamp;P1;durP1;ratioP1;P2;durP2;ratioP2
21416;SDS011;10869;52.238;10.716;2022-08-25T03:04:03;21.13;;;12.67;;
21416;SDS011;10869;52.238;10.716;2022-08-25T03:06:31;15.57;;;11.90;;
21416;SDS011;10869;52.238;10.716;2022-08-25T03:09:00;21.47;;;12.23;;
21416;SDS011;10869;52.238;10.716;2022-08-25T03:11:26;21.33;;;12.03;;
21416;SDS011;10869;52.238;10.716;2022-08-25T03:13:56;19.30;;;12.80;;
21416;SDS011;10869;52.238;10.716;2022-08-25T03:16:22;20.87;;;12.63;;
21416;SDS011;10869;52.238;10.716;2022-08-25T03:18:49;23.30;;;12.23;;
21416;SDS011;10869;52.238;10.716;2022-08-25T03:21:15;15.93;;;11.30;;
21416;SDS011;10869;52.238;10.716;2022-08-25T03:23:44;25.27;;;12.30;;
21416;SDS011;10869;52.238;10.716;2022-08-25T05:22:59;22.37;;;15.00;;
21416;SDS011;10869;52.238;10.716;2022-08-25T05:30:46;24.87;;;17.53;;
21416;SDS011;10869;52.238;10.716;2022-08-25T05:38:26;25.20;;;16.23;;
21416;SDS011;10869;52.238;10.716;2022-08-25T05:41:04;21.60;;;16.53;;
21416;SDS011;10869;52.238;10.716;2022-08-25T05:43:34;28.30;;;17.77;;
21416;SDS011;10869;52.238;10.716;2022-08-25T05:46:01;26.83;;;16.87;;
21416;SDS011;10869;52.238;10.716;2022-08-25T05:51:49;25.13;;;15.73;;
21416;SDS011;10869;52.238;10.716;2022-08-25T05:54:15;32.03;;;15.93;;
21416;SDS011;10869;52.238;10.716;2022-08-25T05:56:41;24.83;;;15.17;;
21416;SDS011;10869;52.238;10.716;2022-08-25T05:59:07;39.90;;;17.63;;
21416;SDS011;10869;52.238;10.716;2022-08-25T06:01:33;18.20;;;14.60;;
21416;SDS011;10869;52.238;10.716;2022-08-25T06:04:17;27.13;;;16.30;;
21416;SDS011;10869;52.238;10.716;2022-08-25T06:06:44;18.47;;;13.90;;
21416;SDS011;10869;52.238;10.716;2022-08-25T06:09:10;20.20;;;14.23;;
21416;SDS011;10869;52.238;10.716;2022-08-25T06:11:37;20.40;;;13.23;;
21416;SDS011;10869;52.238;10.716;2022-08-25T06:14:04;22.30;;;16.10;;
21416;SDS011;10869;52.238;10.716;2022-08-25T06:16:30;22.57;;;13.83;;
21416;SDS011;10869;52.238;10.716;2022-08-25T06:18:56;26.67;;;16.17;;
21416;SDS011;10869;52.238;10.716;2022-08-25T06:21:22;24.43;;;16.27;;
21416;SDS011;10869;52.238;10.716;2022-08-25T06:23:48;22.70;;;14.73;;
21416;SDS011;10869;52.238;10.716;2022-08-25T06:26:14;23.60;;;15.17;;
21416;SDS011;10869;52.238;10.716;2022-08-25T06:32:02;21.23;;;14.83;;
21416;SDS011;10869;52.238;10.716;2022-08-25T06:34:28;20.87;;;15.27;;
21416;SDS011;10869;52.238;10.716;2022-08-25T06:36:55;24.83;;;15.83;;
21416;SDS011;10869;52.238;10.716;2022-08-25T06:39:21;21.90;;;16.00;;
21416;SDS011;10869;52.238;10.716;2022-08-25T06:45:24;24.20;;;16.20;;
21416;SDS011;10869;52.238;10.716;2022-08-25T06:47:50;19.87;;;13.37;;
21416;SDS011;10869;52.238;10.716;2022-08-25T07:18:45;17.63;;;11.43;;
21416;SDS011;10869;52.238;10.716;2022-08-25T07:21:12;18.53;;;13.57;;
21416;SDS011;10869;52.238;10.716;2022-08-25T07:27:01;18.77;;;9.80;;
21416;SDS011;10869;52.238;10.716;2022-08-25T07:32:48;16.47;;;9.90;;
21416;SDS011;10869;52.238;10.716;2022-08-25T07:38:37;30.93;;;10.00;;
21416;SDS011;10869;52.238;10.716;2022-08-25T07:41:03;16.30;;;8.83;;
21416;SDS011;10869;52.238;10.716;2022-08-25T07:43:29;18.63;;;8.73;;
21416;SDS011;10869;52.238;10.716;2022-08-25T07:45:55;16.33;;;8.70;;
21416;SDS011;10869;52.238;10.716;2022-08-25T07:51:43;16.10;;;8.70;;
21416;SDS011;10869;52.238;10.716;2022-08-25T07:54:10;15.53;;;8.70;;
21416;SDS011;10869;52.238;10.716;2022-08-25T07:56:36;19.63;;;9.03;;
21416;SDS011;10869;52.238;10.716;2022-08-25T07:59:03;21.53;;;9.13;;
21416;SDS011;10869;52.238;10.716;2022-08-25T08:01:29;25.50;;;9.07;;
21416;SDS011;10869;52.238;10.716;2022-08-25T08:03:55;14.67;;;8.53;;
21416;SDS011;10869;52.238;10.716;2022-08-25T08:32:28;17.57;;;9.07;;
21416;SDS011;10869;52.238;10.716;2022-08-25T08:37:44;21.77;;;9.60;;
21416;SDS011;10869;52.238;10.716;2022-08-25T08:40:20;55.87;;;10.07;;
21416;SDS011;10869;52.238;10.716;2022-08-25T08:43:08;27.30;;;8.47;;
21416;SDS011;10869;52.238;10.716;2022-08-25T08:52:40;17.67;;;8.80;;
21416;SDS011;10869;52.238;10.716;2022-08-25T08:55:21;20.43;;;9.90;;
21416;SDS011;10869;52.238;10.716;2022-08-25T08:58:16;19.40;;;9.43;;
21416;SDS011;10869;52.238;10.716;2022-08-25T09:02:04;20.07;;;9.37;;
21416;SDS011;10869;52.238;10.716;2022-08-25T09:13:19;17.97;;;8.87;;
21416;SDS011;10869;52.238;10.716;2022-08-25T09:16:13;16.30;;;9.10;;
21416;SDS011;10869;52.238;10.716;2022-08-25T09:19:10;21.07;;;8.00;;
21416;SDS011;10869;52.238;10.716;2022-08-25T09:24:39;18.60;;;8.13;;
21416;SDS011;10869;52.238;10.716;2022-08-25T09:27:24;17.00;;;8.10;;
21416;SDS011;10869;52.238;10.716;2022-08-25T09:30:21;14.13;;;7.90;;
21416;SDS011;10869;52.238;10.716;2022-08-25T09:32:52;15.47;;;7.37;;
21416;SDS011;10869;52.238;10.716;2022-08-25T09:35:31;24.07;;;8.53;;
21416;SDS011;10869;52.238;10.716;2022-08-25T09:38:00;18.57;;;8.03;;
21416;SDS011;10869;52.238;10.716;2022-08-25T09:40:30;23.27;;;8.60;;
21416;SDS011;10869;52.238;10.716;2022-08-25T09:43:04;16.83;;;8.93;;
21416;SDS011;10869;52.238;10.716;2022-08-25T10:38:02;50.38;;;17.08;;
21416;SDS011;10869;52.238;10.716;2022-08-25T14:33:53;18.80;;;6.57;;
21416;SDS011;10869;52.238;10.716;2022-08-25T14:36:27;10.32;;;6.15;;
21416;SDS011;10869;52.238;10.716;2022-08-25T14:38:54;15.00;;;7.18;;
21416;SDS011;10869;52.238;10.716;2022-08-25T14:41:25;10.73;;;5.88;;
21416;SDS011;10869;52.238;10.716;2022-08-25T14:43:51;13.85;;;5.85;;
21416;SDS011;10869;52.238;10.716;2022-08-25T14:46:24;16.48;;;6.75;;
21416;SDS011;10869;52.238;10.716;2022-08-25T14:48:59;14.25;;;6.38;;
21416;SDS011;10869;52.238;10.716;2022-08-25T14:51:30;16.88;;;6.30;;
21416;SDS011;10869;52.238;10.716;2022-08-25T14:56:34;12.65;;;6.40;;
21416;SDS011;10869;52.238;10.716;2022-08-25T15:02:25;13.70;;;6.95;;
21416;SDS011;10869;52.238;10.716;2022-08-25T15:08:21;13.30;;;6.68;;
21416;SDS011;10869;52.238;10.716;2022-08-25T15:11:05;14.52;;;6.63;;
21416;SDS011;10869;52.238;10.716;2022-08-25T15:13:31;15.30;;;6.43;;
21416;SDS011;10869;52.238;10.716;2022-08-25T15:15:57;14.48;;;7.05;;
21416;SDS011;10869;52.238;10.716;2022-08-25T15:18:25;18.23;;;7.40;;
21416;SDS011;10869;52.238;10.716;2022-08-25T15:21:01;15.05;;;7.00;;
21416;SDS011;10869;52.238;10.716;2022-08-25T15:23:29;13.57;;;7.00;;
21416;SDS011;10869;52.238;10.716;2022-08-25T15:25:56;13.35;;;6.35;;
21416;SDS011;10869;52.238;10.716;2022-08-25T15:28:22;15.13;;;7.50;;
21416;SDS011;10869;52.238;10.716;2022-08-25T15:30:55;17.25;;;6.80;;
21416;SDS011;10869;52.238;10.716;2022-08-25T15:33:22;16.17;;;6.88;;
21416;SDS011;10869;52.238;10.716;2022-08-25T15:35:48;13.88;;;7.22;;
21416;SDS011;10869;52.238;10.716;2022-08-25T15:38:14;16.13;;;7.07;;
21416;SDS011;10869;52.238;10.716;2022-08-25T15:40:40;17.08;;;7.45;;
21416;SDS011;10869;52.238;10.716;2022-08-25T15:43:06;17.08;;;7.22;;
21416;SDS011;10869;52.238;10.716;2022-08-25T15:45:32;14.95;;;7.60;;
21416;SDS011;10869;52.238;10.716;2022-08-25T15:51:21;18.33;;;7.35;;
21416;SDS011;10869;52.238;10.716;2022-08-25T15:57:10;17.52;;;7.38;;
21416;SDS011;10869;52.238;10.716;2022-08-25T15:59:39;18.77;;;6.80;;
21416;SDS011;10869;52.238;10.716;2022-08-25T16:02:09;11.45;;;6.32;;
21416;SDS011;10869;52.238;10.716;2022-08-25T16:04:34;13.77;;;6.95;;
21416;SDS011;10869;52.238;10.716;2022-08-25T16:07:02;14.95;;;7.30;;
21416;SDS011;10869;52.238;10.716;2022-08-25T16:12:49;16.33;;;7.15;;
21416;SDS011;10869;52.238;10.716;2022-08-25T16:15:15;21.23;;;6.90;;
21416;SDS011;10869;52.238;10.716;2022-08-25T16:21:05;21.17;;;7.35;;
21416;SDS011;10869;52.238;10.716;2022-08-25T16:26:59;14.80;;;7.22;;
21416;SDS011;10869;52.238;10.716;2022-08-25T16:32:50;17.83;;;6.70;;
21416;SDS011;10869;52.238;10.716;2022-08-25T16:38:39;13.68;;;6.60;;
21416;SDS011;10869;52.238;10.716;2022-08-25T16:44:27;18.27;;;6.57;;
21416;SDS011;10869;52.238;10.716;2022-08-25T16:50:15;17.25;;;7.50;;
21416;SDS011;10869;52.238;10.716;2022-08-25T16:52:41;23.38;;;7.15;;
21416;SDS011;10869;52.238;10.716;2022-08-25T16:55:25;21.55;;;7.50;;
21416;SDS011;10869;52.238;10.716;2022-08-25T16:57:57;20.98;;;7.65;;
21416;SDS011;10869;52.238;10.716;2022-08-25T17:00:24;14.07;;;6.70;;
21416;SDS011;10869;52.238;10.716;2022-08-25T17:02:56;22.50;;;7.05;;
21416;SDS011;10869;52.238;10.716;2022-08-25T17:05:25;19.73;;;7.20;;
21416;SDS011;10869;52.238;10.716;2022-08-25T17:11:28;16.75;;;7.07;;
21416;SDS011;10869;52.238;10.716;2022-08-25T17:13:56;19.80;;;7.85;;
21416;SDS011;10869;52.238;10.716;2022-08-25T17:19:45;17.40;;;7.40;;
21416;SDS011;10869;52.238;10.716;2022-08-25T17:25:47;18.80;;;7.28;;
21416;SDS011;10869;52.238;10.716;2022-08-25T17:28:14;17.02;;;6.82;;
21416;SDS011;10869;52.238;10.716;2022-08-25T17:30:40;25.63;;;7.23;;
21416;SDS011;10869;52.238;10.716;2022-08-25T17:33:05;17.53;;;7.20;;
21416;SDS011;10869;52.238;10.716;2022-08-25T17:35:36;24.97;;;7.33;;
21416;SDS011;10869;52.238;10.716;2022-08-25T17:38:05;18.10;;;7.90;;
21416;SDS011;10869;52.238;10.716;2022-08-25T17:40:31;16.37;;;6.47;;
21416;SDS011;10869;52.238;10.716;2022-08-25T17:46:23;15.97;;;6.80;;
21416;SDS011;10869;52.238;10.716;2022-08-25T17:48:49;19.33;;;6.80;;
21416;SDS011;10869;52.238;10.716;2022-08-25T17:51:15;16.17;;;7.13;;
21416;SDS011;10869;52.238;10.716;2022-08-25T17:53:41;14.03;;;6.93;;
21416;SDS011;10869;52.238;10.716;2022-08-25T17:56:09;18.47;;;6.70;;
21416;SDS011;10869;52.238;10.716;2022-08-25T17:58:38;22.80;;;7.87;;
21416;SDS011;10869;52.238;10.716;2022-08-25T18:01:05;18.63;;;6.23;;
21416;SDS011;10869;52.238;10.716;2022-08-25T18:03:32;17.90;;;7.03;;
21416;SDS011;10869;52.238;10.716;2022-08-25T18:05:59;19.87;;;8.27;;
21416;SDS011;10869;52.238;10.716;2022-08-25T18:11:47;22.53;;;7.63;;
21416;SDS011;10869;52.238;10.716;2022-08-25T18:17:36;21.77;;;8.10;;
21416;SDS011;10869;52.238;10.716;2022-08-25T18:20:06;15.63;;;7.60;;
21416;SDS011;10869;52.238;10.716;2022-08-25T18:22:33;16.73;;;7.57;;
21416;SDS011;10869;52.238;10.716;2022-08-25T18:25:01;20.17;;;7.60;;
21416;SDS011;10869;52.238;10.716;2022-08-25T18:27:31;15.43;;;7.47;;
21416;SDS011;10869;52.238;10.716;2022-08-25T18:29:58;22.80;;;8.13;;
21416;SDS011;10869;52.238;10.716;2022-08-25T18:32:25;14.30;;;7.77;;
21416;SDS011;10869;52.238;10.716;2022-08-25T18:34:51;23.23;;;7.80;;
21416;SDS011;10869;52.238;10.716;2022-08-25T18:37:17;22.47;;;7.87;;
21416;SDS011;10869;52.238;10.716;2022-08-25T18:43:24;16.67;;;8.70;;
21416;SDS011;10869;52.238;10.716;2022-08-25T18:49:12;23.03;;;7.37;;
21416;SDS011;10869;52.238;10.716;2022-08-25T18:51:39;25.07;;;7.70;;
21416;SDS011;10869;52.238;10.716;2022-08-25T18:54:05;16.33;;;8.20;;
21416;SDS011;10869;52.238;10.716;2022-08-25T18:56:30;17.50;;;7.93;;
21416;SDS011;10869;52.238;10.716;2022-08-25T18:58:57;19.93;;;7.97;;
21416;SDS011;10869;52.238;10.716;2022-08-25T19:01:23;19.57;;;7.70;;
21416;SDS011;10869;52.238;10.716;2022-08-25T19:03:49;19.40;;;8.27;;
21416;SDS011;10869;52.238;10.716;2022-08-25T19:06:15;16.90;;;7.70;;
21416;SDS011;10869;52.238;10.716;2022-08-25T19:12:05;18.20;;;8.73;;
21416;SDS011;10869;52.238;10.716;2022-08-25T19:14:31;17.53;;;9.40;;
21416;SDS011;10869;52.238;10.716;2022-08-25T19:20:18;21.90;;;8.30;;
21416;SDS011;10869;52.238;10.716;2022-08-25T19:26:08;21.97;;;9.03;;
21416;SDS011;10869;52.238;10.716;2022-08-25T19:28:34;21.63;;;9.17;;
21416;SDS011;10869;52.238;10.716;2022-08-25T19:31:00;18.03;;;7.90;;
21416;SDS011;10869;52.238;10.716;2022-08-25T19:33:29;22.70;;;8.50;;
21416;SDS011;10869;52.238;10.716;2022-08-25T19:35:58;21.90;;;9.17;;
21416;SDS011;10869;52.238;10.716;2022-08-25T19:41:47;21.07;;;8.40;;
21416;SDS011;10869;52.238;10.716;2022-08-25T19:47:35;17.40;;;8.77;;
21416;SDS011;10869;52.238;10.716;2022-08-25T19:50:02;24.53;;;8.50;;
21416;SDS011;10869;52.238;10.716;2022-08-25T19:52:29;21.40;;;9.40;;
21416;SDS011;10869;52.238;10.716;2022-08-25T19:54:55;14.03;;;7.77;;
21416;SDS011;10869;52.238;10.716;2022-08-25T19:57:21;17.13;;;8.93;;
21416;SDS011;10869;52.238;10.716;2022-08-25T19:59:47;22.50;;;8.67;;
21416;SDS011;10869;52.238;10.716;2022-08-25T20:02:15;17.73;;;8.20;;
21416;SDS011;10869;52.238;10.716;2022-08-25T20:04:46;16.00;;;8.10;;
21416;SDS011;10869;52.238;10.716;2022-08-25T20:07:20;22.23;;;8.23;;
21416;SDS011;10869;52.238;10.716;2022-08-25T20:09:55;23.63;;;8.83;;
21416;SDS011;10869;52.238;10.716;2022-08-25T20:12:24;19.10;;;8.30;;
21416;SDS011;10869;52.238;10.716;2022-08-25T20:14:51;18.37;;;8.13;;
21416;SDS011;10869;52.238;10.716;2022-08-25T20:17:18;16.90;;;8.10;;
21416;SDS011;10869;52.238;10.716;2022-08-25T20:19:45;23.90;;;8.17;;
21416;SDS011;10869;52.238;10.716;2022-08-25T20:22:10;13.03;;;7.77;;
21416;SDS011;10869;52.238;10.716;2022-08-25T20:24:36;18.40;;;8.23;;
21416;SDS011;10869;52.238;10.716;2022-08-25T20:27:19;19.70;;;8.20;;
21416;SDS011;10869;52.238;10.716;2022-08-25T20:29:47;14.20;;;7.60;;
21416;SDS011;10869;52.238;10.716;2022-08-25T20:32:13;16.77;;;7.23;;
21416;SDS011;10869;52.238;10.716;2022-08-25T20:34:40;16.67;;;7.60;;
21416;SDS011;10869;52.238;10.716;2022-08-25T20:37:07;20.00;;;7.90;;
21416;SDS011;10869;52.238;10.716;2022-08-25T20:39:33;17.00;;;8.03;;
21416;SDS011;10869;52.238;10.716;2022-08-25T20:42:00;18.80;;;7.87;;
21416;SDS011;10869;52.238;10.716;2022-08-25T20:44:26;19.10;;;8.00;;
21416;SDS011;10869;52.238;10.716;2022-08-25T20:46:57;21.70;;;8.53;;
21416;SDS011;10869;52.238;10.716;2022-08-25T20:49:26;20.57;;;8.23;;
21416;SDS011;10869;52.238;10.716;2022-08-25T20:51:52;13.30;;;7.67;;
21416;SDS011;10869;52.238;10.716;2022-08-25T20:54:18;21.40;;;7.97;;
21416;SDS011;10869;52.238;10.716;2022-08-25T20:56:44;21.17;;;8.17;;
21416;SDS011;10869;52.238;10.716;2022-08-25T20:59:09;15.67;;;7.90;;
21416;SDS011;10869;52.238;10.716;2022-08-25T21:01:35;18.73;;;7.90;;
21416;SDS011;10869;52.238;10.716;2022-08-25T21:04:12;18.17;;;8.03;;
21416;SDS011;10869;52.238;10.716;2022-08-25T21:06:39;18.03;;;7.70;;
21416;SDS011;10869;52.238;10.716;2022-08-25T21:09:06;16.33;;;7.73;;
21416;SDS011;10869;52.238;10.716;2022-08-25T21:11:34;18.17;;;7.97;;
21416;SDS011;10869;52.238;10.716;2022-08-25T21:14:00;18.07;;;7.30;;
21416;SDS011;10869;52.238;10.716;2022-08-25T21:16:27;19.27;;;7.83;;
21416;SDS011;10869;52.238;10.716;2022-08-25T21:18:54;19.00;;;7.90;;
21416;SDS011;10869;52.238;10.716;2022-08-25T21:21:20;17.70;;;7.43;;
21416;SDS011;10869;52.238;10.716;2022-08-25T21:23:48;16.60;;;7.57;;
21416;SDS011;10869;52.238;10.716;2022-08-25T21:26:15;13.00;;;7.37;;
21416;SDS011;10869;52.238;10.716;2022-08-25T21:28:43;12.70;;;6.63;;
21416;SDS011;10869;52.238;10.716;2022-08-25T21:31:09;17.40;;;7.40;;
21416;SDS011;10869;52.238;10.716;2022-08-25T21:33:35;20.20;;;7.57;;
21416;SDS011;10869;52.238;10.716;2022-08-25T21:36:01;16.53;;;7.30;;
21416;SDS011;10869;52.238;10.716;2022-08-25T21:38:27;15.30;;;7.77;;
21416;SDS011;10869;52.238;10.716;2022-08-25T21:40:54;17.47;;;8.03;;
21416;SDS011;10869;52.238;10.716;2022-08-25T21:43:21;14.77;;;7.27;;
21416;SDS011;10869;52.238;10.716;2022-08-25T21:45:50;17.40;;;7.87;;
21416;SDS011;10869;52.238;10.716;2022-08-25T21:48:15;15.57;;;7.73;;
21416;SDS011;10869;52.238;10.716;2022-08-25T21:50:41;17.47;;;7.67;;
21416;SDS011;10869;52.238;10.716;2022-08-25T21:53:07;18.90;;;8.53;;
21416;SDS011;10869;52.238;10.716;2022-08-25T21:55:37;18.87;;;8.27;;
21416;SDS011;10869;52.238;10.716;2022-08-25T21:58:03;19.93;;;7.70;;
21416;SDS011;10869;52.238;10.716;2022-08-25T22:00:29;17.43;;;7.00;;
21416;SDS011;10869;52.238;10.716;2022-08-25T22:02:57;21.77;;;7.43;;
21416;SDS011;10869;52.238;10.716;2022-08-25T22:05:24;22.77;;;6.80;;
21416;SDS011;10869;52.238;10.716;2022-08-25T22:07:51;17.57;;;8.37;;
21416;SDS011;10869;52.238;10.716;2022-08-25T22:10:16;15.80;;;7.10;;
21416;SDS011;10869;52.238;10.716;2022-08-25T22:12:42;29.13;;;8.23;;
21416;SDS011;10869;52.238;10.716;2022-08-25T22:15:08;19.73;;;8.07;;
21416;SDS011;10869;52.238;10.716;2022-08-25T22:17:35;17.93;;;8.07;;
21416;SDS011;10869;52.238;10.716;2022-08-25T22:20:03;19.03;;;7.77;;
21416;SDS011;10869;52.238;10.716;2022-08-25T22:22:29;26.63;;;8.53;;
21416;SDS011;10869;52.238;10.716;2022-08-25T22:24:55;20.03;;;7.73;;
21416;SDS011;10869;52.238;10.716;2022-08-25T22:27:21;18.57;;;7.83;;
21416;SDS011;10869;52.238;10.716;2022-08-25T22:29:47;21.80;;;8.53;;
21416;SDS011;10869;52.238;10.716;2022-08-25T22:32:13;26.03;;;8.10;;
21416;SDS011;10869;52.238;10.716;2022-08-25T22:34:39;20.23;;;7.77;;
21416;SDS011;10869;52.238;10.716;2022-08-25T22:37:05;21.53;;;8.80;;
21416;SDS011;10869;52.238;10.716;2022-08-25T22:39:31;22.63;;;8.60;;
21416;SDS011;10869;52.238;10.716;2022-08-25T22:41:57;22.73;;;8.37;;
21416;SDS011;10869;52.238;10.716;2022-08-25T22:44:23;29.70;;;8.77;;
21416;SDS011;10869;52.238;10.716;2022-08-25T22:46:49;31.27;;;9.30;;
21416;SDS011;10869;52.238;10.716;2022-08-25T22:49:15;26.73;;;8.30;;
21416;SDS011;10869;52.238;10.716;2022-08-25T22:51:41;19.93;;;7.87;;
21416;SDS011;10869;52.238;10.716;2022-08-25T22:54:07;27.17;;;8.77;;
21416;SDS011;10869;52.238;10.716;2022-08-25T22:56:34;23.27;;;8.40;;
21416;SDS011;10869;52.238;10.716;2022-08-25T22:59:03;26.60;;;8.63;;
